createdAt,value
2023-03-29T00:01:36.150Z,2.90
2023-03-29T00:04:04.120Z,4.03
2023-03-29T00:06:33.067Z,2.87
2023-03-29T00:09:01.776Z,3.07
2023-03-29T00:11:29.304Z,2.93
2023-03-29T00:13:56.656Z,3.13
2023-03-29T00:16:25.356Z,4.13
2023-03-29T00:18:52.747Z,2.57
2023-03-29T00:21:20.119Z,3.97
2023-03-29T00:23:47.484Z,3.33
2023-03-29T00:26:14.836Z,2.33
2023-03-29T00:28:42.167Z,2.63
2023-03-29T00:31:10.309Z,2.00
2023-03-29T00:33:39.614Z,4.03
2023-03-29T00:36:08.824Z,4.00
2023-03-29T00:38:36.308Z,1.00
2023-03-29T00:41:05.028Z,3.43
2023-03-29T00:43:33.055Z,3.20
2023-03-29T00:46:00.617Z,6.57
2023-03-29T00:48:30.008Z,2.90
2023-03-29T00:51:01.588Z,6.50
2023-03-29T00:53:32.114Z,5.27
2023-03-29T00:56:01.689Z,4.73
2023-03-29T00:58:30.728Z,2.87
2023-03-29T01:01:02.144Z,4.50
2023-03-29T01:03:32.957Z,4.20
2023-03-29T01:06:04.005Z,3.13
2023-03-29T01:08:33.008Z,3.23
2023-03-29T01:11:02.925Z,4.90
2023-03-29T01:13:35.083Z,3.10
2023-03-29T01:16:03.198Z,3.83
2023-03-29T01:18:31.395Z,1.87
2023-03-29T01:21:06.529Z,2.67
2023-03-29T01:23:39.312Z,3.53
2023-03-29T01:26:12.903Z,2.57
2023-03-29T01:28:44.527Z,1.87
2023-03-29T01:31:14.006Z,3.03
2023-03-29T01:33:43.586Z,2.33
2023-03-29T01:36:13.764Z,4.77
2023-03-29T01:38:43.329Z,1.00
2023-03-29T01:41:11.206Z,3.97
2023-03-29T01:43:43.015Z,1.50
2023-03-29T01:46:15.043Z,1.67
2023-03-29T01:48:47.334Z,3.10
2023-03-29T01:51:17.396Z,3.20
2023-03-29T01:53:46.860Z,1.57
2023-03-29T01:56:16.199Z,2.43
2023-03-29T01:58:46.006Z,2.87
2023-03-29T02:01:18.544Z,1.97
2023-03-29T02:03:49.892Z,2.80
2023-03-29T02:06:19.634Z,2.13
2023-03-29T02:08:47.549Z,3.57
2023-03-29T02:11:15.188Z,2.87
2023-03-29T02:13:42.507Z,1.87
2023-03-29T02:16:12.264Z,2.73
2023-03-29T02:18:41.915Z,3.37
2023-03-29T02:21:21.173Z,2.30
2023-03-29T02:23:49.082Z,2.37
2023-03-29T02:26:17.640Z,3.80
2023-03-29T02:28:45.963Z,1.00
2023-03-29T02:31:19.045Z,4.83
2023-03-29T02:33:52.019Z,1.03
2023-03-29T02:36:22.412Z,1.30
2023-03-29T02:38:49.737Z,1.30
2023-03-29T02:41:17.961Z,2.50
2023-03-29T02:43:46.794Z,3.27
2023-03-29T02:46:15.443Z,2.83
2023-03-29T02:48:44.672Z,4.20
2023-03-29T02:51:19.369Z,1.97
2023-03-29T02:53:49.977Z,1.50
2023-03-29T02:56:17.993Z,2.33
2023-03-29T02:58:45.334Z,6.13
2023-03-29T03:01:13.480Z,3.23
2023-03-29T03:03:41.237Z,3.17
2023-03-29T03:06:08.810Z,2.20
2023-03-29T03:08:58.983Z,2.07
2023-03-29T03:11:27.827Z,4.93
2023-03-29T03:13:57.590Z,3.03
2023-03-29T03:16:27.138Z,2.73
2023-03-29T03:18:55.528Z,2.50
2023-03-29T03:21:23.412Z,2.90
2023-03-29T03:23:53.463Z,2.30
2023-03-29T03:26:21.297Z,1.60
2023-03-29T03:28:51.012Z,4.57
2023-03-29T03:31:43.349Z,8.00
2023-03-29T03:34:14.612Z,4.30
2023-03-29T03:36:54.997Z,6.93
2023-03-29T03:39:24.969Z,5.50
2023-03-29T03:41:55.226Z,3.20
2023-03-29T03:44:24.510Z,5.10
2023-03-29T03:47:10.778Z,2.47
2023-03-29T03:49:39.952Z,2.50
2023-03-29T03:52:08.996Z,3.73
2023-03-29T03:54:36.367Z,2.80
2023-03-29T03:57:38.112Z,2.70
2023-03-29T04:00:21.972Z,1.60
2023-03-29T04:03:02.451Z,2.73
2023-03-29T04:05:32.536Z,2.63
2023-03-29T04:08:01.093Z,4.23
2023-03-29T04:10:58.397Z,2.10
2023-03-29T04:13:35.838Z,1.27
2023-03-29T04:16:28.431Z,2.07
2023-03-29T04:19:00.161Z,2.33
2023-03-29T04:21:29.969Z,2.27
2023-03-29T04:23:57.342Z,2.77
2023-03-29T04:26:24.917Z,3.63
2023-03-29T04:29:00.942Z,5.67
2023-03-29T04:31:41.860Z,6.77
2023-03-29T04:34:37.035Z,2.90
2023-03-29T04:37:10.069Z,4.23
2023-03-29T04:39:37.865Z,6.03
2023-03-29T04:42:12.361Z,2.90
2023-03-29T04:44:41.335Z,3.37
2023-03-29T04:47:13.934Z,4.17
2023-03-29T04:49:50.776Z,7.17
2023-03-29T04:52:27.233Z,3.90
2023-03-29T04:54:55.677Z,3.80
2023-03-29T04:57:33.404Z,6.70
2023-03-29T05:00:31.573Z,2.90
2023-03-29T05:03:24.429Z,3.23
2023-03-29T05:06:07.298Z,3.77
2023-03-29T05:08:38.956Z,6.93
2023-03-29T05:11:27.953Z,2.53
2023-03-29T05:14:01.020Z,2.70
2023-03-29T05:16:31.084Z,2.60
2023-03-29T05:19:02.193Z,4.00
2023-03-29T05:21:31.011Z,3.13
2023-03-29T05:24:03.085Z,2.67
2023-03-29T05:26:51.834Z,2.90
2023-03-29T05:29:20.965Z,5.70
2023-03-29T05:31:55.990Z,3.90
2023-03-29T05:34:27.244Z,4.40
2023-03-29T05:37:01.801Z,2.93
2023-03-29T05:39:37.800Z,2.53
2023-03-29T05:42:05.914Z,3.53
2023-03-29T05:44:45.915Z,4.63
2023-03-29T05:47:21.123Z,3.90
2023-03-29T05:49:49.788Z,5.93
2023-03-29T05:52:22.214Z,5.30
2023-03-29T05:54:49.752Z,3.33
2023-03-29T05:57:17.337Z,5.60
2023-03-29T05:59:45.076Z,2.80
2023-03-29T06:02:15.390Z,4.17
2023-03-29T06:04:47.744Z,4.87
2023-03-29T06:07:38.275Z,5.47
2023-03-29T06:10:30.973Z,3.83
2023-03-29T06:13:15.983Z,2.07
2023-03-29T06:15:46.039Z,2.10
2023-03-29T06:18:13.730Z,3.87
2023-03-29T06:20:41.470Z,2.27
2023-03-29T06:23:16.253Z,2.17
2023-03-29T06:25:44.444Z,3.10
2023-03-29T06:28:12.289Z,3.17
2023-03-29T06:30:40.554Z,4.47
2023-03-29T06:33:09.419Z,20.23
2023-03-29T06:35:58.033Z,13.27
2023-03-29T06:38:31.622Z,21.23
2023-03-29T06:41:21.461Z,9.90
2023-03-29T06:43:58.224Z,6.43
2023-03-29T06:46:33.676Z,39.20
2023-03-29T06:49:06.146Z,14.73
2023-03-29T06:51:42.670Z,15.13
2023-03-29T06:54:13.234Z,13.17
2023-03-29T06:56:50.971Z,7.37
2023-03-29T06:59:20.568Z,26.17
2023-03-29T07:01:55.073Z,12.60
2023-03-29T07:04:45.307Z,5.10
2023-03-29T07:07:22.546Z,4.73
2023-03-29T07:09:57.390Z,3.97
2023-03-29T07:12:46.113Z,4.73
2023-03-29T07:15:15.382Z,2.93
2023-03-29T07:18:02.140Z,3.33
2023-03-29T07:20:30.347Z,3.83
2023-03-29T07:23:09.508Z,5.07
2023-03-29T07:25:38.702Z,3.30
2023-03-29T07:28:07.952Z,3.47
2023-03-29T07:30:37.105Z,2.13
2023-03-29T07:33:16.932Z,2.83
2023-03-29T07:35:52.445Z,4.30
2023-03-29T07:38:20.509Z,2.53
2023-03-29T07:40:59.118Z,3.53
2023-03-29T07:43:44.985Z,3.17
2023-03-29T07:46:15.826Z,3.10
2023-03-29T07:48:45.177Z,4.17
2023-03-29T07:51:16.867Z,4.47
2023-03-29T07:53:54.267Z,4.67
2023-03-29T07:56:43.305Z,3.53
2023-03-29T07:59:21.541Z,3.13
2023-03-29T08:01:57.290Z,4.37
2023-03-29T08:04:38.624Z,4.13
2023-03-29T08:07:28.677Z,5.43
2023-03-29T08:10:16.194Z,5.10
2023-03-29T08:13:00.917Z,4.67
2023-03-29T08:15:42.844Z,5.63
2023-03-29T08:18:20.210Z,7.57
2023-03-29T08:20:47.572Z,12.37
2023-03-29T08:23:14.951Z,8.63
2023-03-29T08:26:02.611Z,10.83
2023-03-29T08:28:32.141Z,9.80
2023-03-29T08:31:01.741Z,10.20
2023-03-29T08:33:29.401Z,7.80
2023-03-29T08:36:18.180Z,9.87
2023-03-29T08:38:46.074Z,7.07
2023-03-29T08:41:23.856Z,6.03
2023-03-29T08:43:59.216Z,4.80
2023-03-29T08:46:42.193Z,3.87
2023-03-29T08:49:28.414Z,4.00
2023-03-29T08:52:01.301Z,4.33
2023-03-29T08:54:33.169Z,3.93
2023-03-29T08:57:14.975Z,4.53
2023-03-29T08:59:49.530Z,3.40
2023-03-29T09:02:18.901Z,3.93
2023-03-29T09:04:52.336Z,4.07
2023-03-29T09:07:29.812Z,4.07
2023-03-29T09:09:57.355Z,4.77
2023-03-29T09:12:40.106Z,7.33
2023-03-29T09:15:15.254Z,5.13
2023-03-29T09:17:51.561Z,3.70
2023-03-29T09:20:26.212Z,5.07
2023-03-29T09:22:58.731Z,3.50
2023-03-29T09:25:36.347Z,4.37
2023-03-29T09:28:15.891Z,3.17
2023-03-29T09:31:00.700Z,4.03
2023-03-29T09:33:32.383Z,3.23
2023-03-29T09:36:09.870Z,3.27
2023-03-29T09:38:40.413Z,5.27
2023-03-29T09:41:13.280Z,2.97
2023-03-29T09:43:42.410Z,3.03
2023-03-29T09:46:19.287Z,4.13
2023-03-29T09:48:47.886Z,3.60
2023-03-29T09:51:15.606Z,2.87
2023-03-29T09:53:43.055Z,3.17
2023-03-29T09:56:19.218Z,6.53
2023-03-29T09:59:07.211Z,3.43
2023-03-29T10:01:38.737Z,3.77
2023-03-29T10:04:08.203Z,4.00
2023-03-29T10:06:36.765Z,2.73
2023-03-29T10:09:05.907Z,4.00
2023-03-29T10:11:39.392Z,2.97
2023-03-29T10:14:12.267Z,3.63
2023-03-29T10:16:41.538Z,2.57
2023-03-29T10:19:19.764Z,2.87
2023-03-29T10:21:48.836Z,3.50
2023-03-29T10:24:19.414Z,3.70
2023-03-29T10:26:47.955Z,2.90
2023-03-29T10:29:15.604Z,2.33
2023-03-29T10:31:44.359Z,5.17
2023-03-29T10:34:15.069Z,4.47
2023-03-29T10:36:45.386Z,5.00
2023-03-29T10:39:15.456Z,3.70
2023-03-29T10:41:44.561Z,4.07
2023-03-29T10:44:26.683Z,3.03
2023-03-29T10:46:55.422Z,3.13
2023-03-29T10:49:25.329Z,2.80
2023-03-29T10:51:53.369Z,3.40
2023-03-29T10:54:23.037Z,4.60
2023-03-29T10:56:53.190Z,2.50
2023-03-29T10:59:23.918Z,3.50
2023-03-29T11:02:02.236Z,4.50
2023-03-29T11:04:35.598Z,4.83
2023-03-29T11:07:17.344Z,3.37
2023-03-29T11:09:51.235Z,3.47
2023-03-29T11:12:20.871Z,4.20
2023-03-29T11:14:53.160Z,5.57
2023-03-29T11:17:28.054Z,3.53
2023-03-29T11:19:59.546Z,3.10
2023-03-29T11:22:32.191Z,4.63
2023-03-29T11:25:08.498Z,2.83
2023-03-29T11:27:38.606Z,4.23
2023-03-29T11:30:12.063Z,3.47
2023-03-29T11:32:47.254Z,6.23
2023-03-29T11:35:24.059Z,4.27
2023-03-29T11:37:54.037Z,4.57
2023-03-29T11:40:35.919Z,4.20
2023-03-29T11:43:05.288Z,3.13
2023-03-29T11:45:34.176Z,4.33
2023-03-29T11:48:03.820Z,4.00
2023-03-29T11:50:35.377Z,3.93
2023-03-29T11:53:06.938Z,3.37
2023-03-29T11:55:35.516Z,4.40
2023-03-29T11:58:05.254Z,6.10
2023-03-29T12:00:36.418Z,5.70
2023-03-29T12:03:10.474Z,2.33
2023-03-29T12:05:42.738Z,3.67
2023-03-29T12:08:14.946Z,3.50
2023-03-29T12:10:43.845Z,4.90
2023-03-29T12:13:16.283Z,3.93
2023-03-29T12:15:44.855Z,3.97
2023-03-29T12:18:18.430Z,4.77
2023-03-29T12:20:47.677Z,2.30
2023-03-29T12:23:16.580Z,2.43
2023-03-29T12:25:49.043Z,2.47
2023-03-29T12:28:24.200Z,2.50
2023-03-29T12:30:57.269Z,2.60
2023-03-29T12:33:41.384Z,3.43
2023-03-29T12:36:45.829Z,3.47
2023-03-29T12:39:45.768Z,1.87
2023-03-29T12:42:31.764Z,1.87
2023-03-29T12:45:38.846Z,2.67
2023-03-29T12:48:07.424Z,2.93
2023-03-29T12:50:37.431Z,3.97
2023-03-29T12:53:05.915Z,4.43
2023-03-29T12:55:35.353Z,3.33
2023-03-29T12:58:03.392Z,1.90
2023-03-29T13:00:33.637Z,2.70
2023-03-29T13:03:04.943Z,1.93
2023-03-29T13:05:34.272Z,4.87
2023-03-29T13:08:20.178Z,1.97
2023-03-29T13:10:52.967Z,2.87
2023-03-29T13:13:23.086Z,3.50
2023-03-29T13:15:50.504Z,2.47
2023-03-29T13:18:27.213Z,2.87
2023-03-29T13:20:59.540Z,3.53
2023-03-29T13:23:33.375Z,2.77
2023-03-29T13:26:08.342Z,5.63
2023-03-29T13:28:38.003Z,4.27
2023-03-29T13:31:08.545Z,2.13
2023-03-29T13:33:45.484Z,3.20
2023-03-29T13:36:16.630Z,2.00
2023-03-29T13:38:46.968Z,2.60
2023-03-29T13:41:27.620Z,4.23
2023-03-29T13:43:55.898Z,3.03
2023-03-29T13:46:25.013Z,2.27
2023-03-29T13:48:54.675Z,2.87
2023-03-29T13:51:27.400Z,1.77
2023-03-29T13:53:58.356Z,2.87
2023-03-29T13:56:27.848Z,3.57
2023-03-29T13:58:57.985Z,2.20
2023-03-29T14:01:28.156Z,3.27
2023-03-29T14:03:56.666Z,2.97
2023-03-29T14:06:27.352Z,4.70
2023-03-29T14:08:56.181Z,2.63
2023-03-29T14:11:25.351Z,5.40
2023-03-29T14:13:53.846Z,4.40
2023-03-29T14:16:21.469Z,3.43
2023-03-29T14:18:51.319Z,4.33
2023-03-29T14:21:19.606Z,6.50
2023-03-29T14:23:48.505Z,4.93
2023-03-29T14:26:18.856Z,5.83
2023-03-29T14:28:46.972Z,4.50
2023-03-29T14:31:21.269Z,4.70
2023-03-29T14:33:52.649Z,4.47
2023-03-29T14:36:21.221Z,4.33
2023-03-29T14:38:50.733Z,4.17
2023-03-29T14:41:21.005Z,4.70
2023-03-29T14:43:51.058Z,4.87
2023-03-29T14:46:20.917Z,4.03
2023-03-29T14:48:48.787Z,3.67
2023-03-29T14:51:16.346Z,4.67
2023-03-29T14:53:43.795Z,4.53
2023-03-29T14:56:13.139Z,3.63
2023-03-29T14:58:46.468Z,4.27
2023-03-29T15:01:16.633Z,4.83
2023-03-29T15:03:44.667Z,3.30
2023-03-29T15:06:13.106Z,5.43
2023-03-29T15:08:48.039Z,3.57
2023-03-29T15:11:23.180Z,8.03
2023-03-29T15:13:53.212Z,9.33
2023-03-29T15:16:21.573Z,7.50
2023-03-29T15:18:50.454Z,6.60
2023-03-29T15:21:20.456Z,7.80
2023-03-29T15:23:48.817Z,7.17
2023-03-29T15:26:21.376Z,6.13
2023-03-29T15:28:49.417Z,5.20
2023-03-29T15:31:19.507Z,4.97
2023-03-29T15:33:47.640Z,6.97
2023-03-29T15:36:16.465Z,5.80
2023-03-29T15:38:45.321Z,7.63
2023-03-29T15:41:13.762Z,7.20
2023-03-29T15:43:42.220Z,7.47
2023-03-29T15:46:11.358Z,5.67
2023-03-29T15:48:40.437Z,7.50
2023-03-29T15:51:08.262Z,7.13
2023-03-29T15:53:36.428Z,5.87
2023-03-29T15:56:07.141Z,6.80
2023-03-29T15:58:35.531Z,6.93
2023-03-29T16:01:11.150Z,5.67
2023-03-29T16:03:40.207Z,6.50
2023-03-29T16:06:11.018Z,4.57
2023-03-29T16:08:38.698Z,8.67
2023-03-29T16:11:06.640Z,6.07
2023-03-29T16:13:34.071Z,6.27
2023-03-29T16:16:01.749Z,5.97
2023-03-29T16:18:29.590Z,7.07
2023-03-29T16:20:59.341Z,8.13
2023-03-29T16:23:26.712Z,5.07
2023-03-29T16:25:54.143Z,6.30
2023-03-29T16:28:21.690Z,6.67
2023-03-29T16:30:49.175Z,6.10
2023-03-29T16:37:12.736Z,5.37
2023-03-29T16:39:40.438Z,4.70
2023-03-29T16:42:08.341Z,4.67
2023-03-29T16:44:35.659Z,5.47
2023-03-29T16:47:03.047Z,5.63
2023-03-29T16:49:30.729Z,7.20
2023-03-29T16:51:59.686Z,5.10
2023-03-29T16:54:29.604Z,5.10
2023-03-29T16:56:57.603Z,12.40
2023-03-29T16:59:25.438Z,6.23
2023-03-29T17:01:52.870Z,6.70
2023-03-29T17:04:20.337Z,5.50
2023-03-29T17:06:48.600Z,5.57
2023-03-29T17:09:17.032Z,6.07
2023-03-29T17:11:46.052Z,3.83
2023-03-29T17:14:13.591Z,5.80
2023-03-29T17:16:41.009Z,4.87
2023-03-29T17:19:08.364Z,5.60
2023-03-29T17:21:35.791Z,6.13
2023-03-29T17:24:03.433Z,7.57
2023-03-29T17:26:30.813Z,8.47
2023-03-29T17:28:59.451Z,5.47
2023-03-29T17:31:26.914Z,6.90
2023-03-29T17:33:54.358Z,7.10
2023-03-29T17:36:23.832Z,5.63
2023-03-29T17:38:51.859Z,8.70
2023-03-29T17:41:19.345Z,9.30
2023-03-29T17:43:47.762Z,7.80
2023-03-29T17:46:16.730Z,7.93
2023-03-29T17:48:44.119Z,5.17
2023-03-29T17:51:11.455Z,4.63
2023-03-29T17:53:39.156Z,7.17
2023-03-29T17:56:07.555Z,4.77
2023-03-29T17:58:34.981Z,6.77
2023-03-29T18:01:07.058Z,6.30
2023-03-29T18:03:35.993Z,5.83
2023-03-29T18:06:05.105Z,4.97
2023-03-29T18:08:33.786Z,4.40
2023-03-29T18:11:05.510Z,7.00
2023-03-29T18:13:32.922Z,5.23
2023-03-29T18:16:00.664Z,8.63
2023-03-29T18:18:28.457Z,5.20
2023-03-29T18:20:57.216Z,4.93
2023-03-29T18:23:24.708Z,8.63
2023-03-29T18:25:52.051Z,8.20
2023-03-29T18:28:19.934Z,4.37
2023-03-29T18:30:50.986Z,3.83
2023-03-29T18:33:18.418Z,3.63
2023-03-29T18:35:48.432Z,4.87
2023-03-29T18:38:17.437Z,8.40
2023-03-29T18:40:47.420Z,5.57
2023-03-29T18:43:14.880Z,8.03
2023-03-29T18:45:42.477Z,6.83
2023-03-29T18:48:09.898Z,8.37
2023-03-29T18:50:37.400Z,8.80
2023-03-29T18:53:05.429Z,7.17
2023-03-29T18:55:34.103Z,5.90
2023-03-29T18:58:01.789Z,6.00
2023-03-29T19:00:29.164Z,5.30
2023-03-29T19:02:56.632Z,5.57
2023-03-29T19:05:24.157Z,4.83
2023-03-29T19:07:51.575Z,4.37
2023-03-29T19:10:18.975Z,5.57
2023-03-29T19:12:47.798Z,6.23
2023-03-29T19:15:15.247Z,4.70
2023-03-29T19:17:42.670Z,5.10
2023-03-29T19:20:11.097Z,5.83
2023-03-29T19:22:38.458Z,4.60
2023-03-29T19:25:06.180Z,6.80
2023-03-29T19:27:33.919Z,19.77
2023-03-29T19:30:02.633Z,12.43
2023-03-29T19:32:33.214Z,16.50
2023-03-29T19:35:01.531Z,22.07
2023-03-29T19:37:29.304Z,23.50
2023-03-29T19:39:57.065Z,29.97
2023-03-29T19:42:24.827Z,16.83
2023-03-29T19:44:52.136Z,8.30
2023-03-29T19:47:20.810Z,7.97
2023-03-29T19:49:48.151Z,10.00
2023-03-29T19:52:15.535Z,4.43
2023-03-29T19:54:42.882Z,3.57
2023-03-29T19:57:10.299Z,6.00
2023-03-29T19:59:38.754Z,3.27
2023-03-29T20:02:06.521Z,2.87
2023-03-29T20:04:35.335Z,2.93
2023-03-29T20:07:02.705Z,4.47
2023-03-29T20:09:30.124Z,2.57
2023-03-29T20:11:57.488Z,2.93
2023-03-29T20:14:25.095Z,3.20
2023-03-29T20:16:54.000Z,3.10
2023-03-29T20:19:24.649Z,2.60
2023-03-29T20:21:55.218Z,2.00
2023-03-29T20:24:22.697Z,2.53
2023-03-29T20:26:50.028Z,4.47
2023-03-29T20:29:17.574Z,2.80
2023-03-29T20:31:45.238Z,2.73
2023-03-29T20:34:12.597Z,2.60
2023-03-29T20:36:40.554Z,3.43
2023-03-29T20:39:09.432Z,3.13
2023-03-29T20:41:38.270Z,2.17
2023-03-29T20:44:05.873Z,5.23
2023-03-29T20:46:37.901Z,2.77
2023-03-29T20:49:07.328Z,2.43
2023-03-29T20:51:34.694Z,3.53
2023-03-29T20:54:06.022Z,4.13
2023-03-29T20:56:37.258Z,4.23
2023-03-29T20:59:05.752Z,5.53
2023-03-29T21:01:34.879Z,9.27
2023-03-29T21:04:02.603Z,5.57
2023-03-29T21:06:30.147Z,4.00
2023-03-29T21:08:58.653Z,3.97
2023-03-29T21:11:26.001Z,2.40
2023-03-29T21:13:55.091Z,4.17
2023-03-29T21:16:22.694Z,2.07
2023-03-29T21:18:50.153Z,3.47
2023-03-29T21:21:17.475Z,2.33
2023-03-29T21:23:44.811Z,2.40
2023-03-29T21:26:12.486Z,2.33
2023-03-29T21:28:40.939Z,1.67
2023-03-29T21:31:09.805Z,4.80
2023-03-29T21:33:37.543Z,2.83
2023-03-29T21:36:05.493Z,4.57
2023-03-29T21:38:32.864Z,2.03
2023-03-29T21:41:00.664Z,5.73
2023-03-29T21:43:28.198Z,1.87
2023-03-29T21:45:57.399Z,2.63
2023-03-29T21:48:26.506Z,2.63
2023-03-29T21:50:53.845Z,2.07
2023-03-29T21:53:21.331Z,1.90
2023-03-29T21:55:48.902Z,2.47
2023-03-29T21:58:16.307Z,2.17
2023-03-29T22:00:43.697Z,2.83
2023-03-29T22:03:11.330Z,3.90
2023-03-29T22:05:40.020Z,2.10
2023-03-29T22:08:10.189Z,1.57
2023-03-29T22:10:38.117Z,5.50
2023-03-29T22:13:05.867Z,2.47
2023-03-29T22:15:35.455Z,3.70
2023-03-29T22:18:02.942Z,1.87
2023-03-29T22:20:30.398Z,3.30
2023-03-29T22:22:59.057Z,2.07
2023-03-29T22:25:26.999Z,2.07
2023-03-29T22:27:54.352Z,4.63
2023-03-29T22:30:22.720Z,2.07
2023-03-29T22:32:50.092Z,2.60
2023-03-29T22:35:17.571Z,3.17
2023-03-29T22:37:45.063Z,1.83
2023-03-29T22:40:14.137Z,2.10
2023-03-29T22:42:41.504Z,2.60
2023-03-29T22:45:09.381Z,4.03
2023-03-29T22:47:36.826Z,3.07
2023-03-29T22:50:04.671Z,4.13
2023-03-29T22:52:32.010Z,2.60
2023-03-29T22:54:59.355Z,4.67
2023-03-29T22:57:28.469Z,4.30
2023-03-29T22:59:55.864Z,3.03
2023-03-29T23:02:23.387Z,5.57
2023-03-29T23:04:50.752Z,3.57
2023-03-29T23:07:18.213Z,3.03
2023-03-29T23:09:45.553Z,4.50
2023-03-29T23:12:12.946Z,3.17
2023-03-29T23:14:42.727Z,4.57
2023-03-29T23:17:10.708Z,3.40
2023-03-29T23:19:38.223Z,5.97
2023-03-29T23:22:05.628Z,2.57
2023-03-29T23:24:33.317Z,3.20
2023-03-29T23:27:01.132Z,2.63
2023-03-29T23:29:28.459Z,3.10
2023-03-29T23:31:57.603Z,5.63
2023-03-29T23:34:25.161Z,3.23
2023-03-29T23:36:52.576Z,4.63
2023-03-29T23:39:19.913Z,2.83
2023-03-29T23:41:47.352Z,4.17
2023-03-29T23:44:14.685Z,2.87
2023-03-29T23:46:42.185Z,3.97
2023-03-29T23:49:10.868Z,5.53
2023-03-29T23:51:39.066Z,3.57
2023-03-29T23:54:07.065Z,3.67
2023-03-29T23:56:34.592Z,4.83
2023-03-29T23:59:03.188Z,3.30
